Time;durP1;ratioP1;P1;durP2;ratioP2;P2;SDS_P1;SDS_P2;PMS_P1;PMS_P2;Temp;Humidity;BMP_temperature;BMP_pressure;BME280_temperature;BME280_humidity;BME280_pressure;Samples;Min_cycle;Max_cycle;Signal;HPM_P1;HPM_P2
2022/10/18 00:02:42;;;;;;;4.38;3.13;;;15.30;99.90;;;;;;10421657;28;20051;-60
2022/10/18 00:07:43;;;;;;;5.72;3.40;;;15.30;99.90;;;;;;10436086;28;20060;-61
2022/10/18 00:12:44;;;;;;;4.28;3.13;;;15.30;99.90;;;;;;10436304;28;20041;-60
2022/10/18 00:17:44;;;;;;;4.60;3.50;;;15.30;99.90;;;;;;10437801;28;20043;-62
2022/10/18 00:22:45;;;;;;;4.65;3.20;;;15.30;99.90;;;;;;10438329;28;20454;-61
2022/10/18 00:27:46;;;;;;;6.55;3.67;;;15.30;99.90;;;;;;10437147;28;20033;-61
2022/10/18 00:32:46;;;;;;;4.82;3.15;;;15.30;99.90;;;;;;10439856;28;20248;-60
2022/10/18 00:37:47;;;;;;;5.28;3.38;;;15.30;99.90;;;;;;10437836;28;20053;-60
2022/10/18 00:42:48;;;;;;;3.75;3.03;;;15.30;99.90;;;;;;10438697;28;20101;-60
2022/10/18 00:48:02;;;;;;;4.88;3.28;;;15.20;99.90;;;;;;10419611;28;20508;-61
2022/10/18 00:53:08;;;;;;;4.30;2.90;;;15.20;99.90;;;;;;10435028;28;20037;-60
2022/10/18 00:58:11;;;;;;;3.65;2.88;;;15.20;99.90;;;;;;10437139;28;20021;-60
2022/10/18 01:03:11;;;;;;;5.35;3.63;;;15.20;99.90;;;;;;10436206;28;20015;-60
2022/10/18 01:08:30;;;;;;;4.63;3.00;;;15.20;99.90;;;;;;10436709;28;20044;-60
2022/10/18 01:13:38;;;;;;;3.60;2.83;;;15.20;99.90;;;;;;10442560;28;20132;-61
2022/10/18 01:18:50;;;;;;;3.87;3.07;;;15.20;99.90;;;;;;10445263;28;20402;-60
2022/10/18 01:24:21;;;;;;;4.78;3.25;;;15.20;99.90;;;;;;10445047;28;20036;-60
2022/10/18 01:29:41;;;;;;;3.55;2.85;;;15.20;99.90;;;;;;10445883;28;20113;-60
2022/10/18 01:34:44;;;;;;;4.35;3.10;;;15.10;99.90;;;;;;10444933;28;20120;-60
2022/10/18 01:39:46;;;;;;;4.47;3.30;;;15.10;99.90;;;;;;10443681;28;20049;-61
2022/10/18 01:44:50;;;;;;;4.43;3.35;;;15.10;99.90;;;;;;10444202;28;20021;-60
2022/10/18 01:50:04;;;;;;;3.95;2.78;;;15.10;99.90;;;;;;10445633;28;20040;-60
2022/10/18 01:55:05;;;;;;;3.35;2.80;;;15.10;99.90;;;;;;10444371;28;20033;-60
2022/10/18 02:00:35;;;;;;;3.35;2.70;;;15.10;99.90;;;;;;10443513;28;20111;-60
2022/10/18 02:05:43;;;;;;;4.15;2.70;;;15.10;99.90;;;;;;10444953;28;20048;-60
2022/10/18 02:10:48;;;;;;;3.25;2.38;;;15.00;99.90;;;;;;10441903;28;20509;-60
2022/10/18 02:15:53;;;;;;;6.30;3.35;;;15.00;99.90;;;;;;10439890;28;20055;-60
2022/10/18 02:20:55;;;;;;;3.83;2.85;;;15.00;99.90;;;;;;10444081;28;20801;-60
2022/10/18 02:25:55;;;;;;;3.55;2.58;;;15.00;99.90;;;;;;10441717;28;20040;-60
2022/10/18 02:31:09;;;;;;;3.95;2.67;;;15.00;99.90;;;;;;10441827;28;20025;-60
2022/10/18 02:36:17;;;;;;;3.10;2.30;;;15.00;99.90;;;;;;10443838;28;20036;-60
2022/10/18 02:41:26;;;;;;;3.93;2.40;;;15.00;99.90;;;;;;10443480;28;20144;-61
2022/10/18 02:46:26;;;;;;;3.78;2.65;;;15.00;99.90;;;;;;10437484;28;20032;-60
2022/10/18 02:51:27;;;;;;;3.00;2.42;;;15.00;99.90;;;;;;10440400;28;20025;-63
2022/10/18 02:56:28;;;;;;;3.20;2.35;;;14.90;99.90;;;;;;10440038;28;20048;-61
2022/10/18 03:01:29;;;;;;;3.55;2.50;;;14.90;99.90;;;;;;10441509;28;20021;-60
2022/10/18 03:06:30;;;;;;;3.10;2.05;;;14.90;99.90;;;;;;10439870;28;20079;-60
2022/10/18 03:11:31;;;;;;;3.67;2.75;;;15.00;99.90;;;;;;10441695;28;20080;-60
2022/10/18 03:16:33;;;;;;;3.13;2.22;;;14.90;99.90;;;;;;10441160;28;20028;-60
2022/10/18 03:21:33;;;;;;;2.53;2.30;;;14.90;99.90;;;;;;10440461;28;20021;-61
2022/10/18 03:26:34;;;;;;;3.17;2.38;;;14.90;99.90;;;;;;10437462;28;20393;-61
2022/10/18 03:31:35;;;;;;;2.50;2.30;;;14.90;99.90;;;;;;10440798;28;20642;-60
2022/10/18 03:36:37;;;;;;;2.95;2.63;;;14.90;99.90;;;;;;10437130;28;20548;-60
2022/10/18 03:41:38;;;;;;;3.25;2.42;;;14.90;99.90;;;;;;10440259;28;20422;-60
2022/10/18 03:46:38;;;;;;;3.08;2.47;;;14.90;99.90;;;;;;10437328;28;20031;-60
2022/10/18 03:51:39;;;;;;;2.35;2.10;;;14.80;99.90;;;;;;10440146;28;20047;-60
2022/10/18 03:56:40;;;;;;;2.50;2.25;;;14.80;99.90;;;;;;10439503;28;20037;-60
2022/10/18 04:01:41;;;;;;;2.75;2.35;;;14.80;99.90;;;;;;10438844;28;20402;-60
2022/10/18 04:06:41;;;;;;;2.38;2.17;;;14.80;99.90;;;;;;10438339;28;20032;-60
2022/10/18 04:11:42;;;;;;;3.80;2.25;;;14.80;99.90;;;;;;10438934;28;20112;-60
2022/10/18 04:16:43;;;;;;;3.20;2.90;;;14.80;99.90;;;;;;10439407;28;20077;-60
2022/10/18 04:21:44;;;;;;;3.50;2.38;;;14.80;99.90;;;;;;10441298;28;20551;-60
2022/10/18 04:26:44;;;;;;;2.65;2.40;;;14.80;99.90;;;;;;10437895;28;20112;-61
2022/10/18 04:31:45;;;;;;;3.00;2.47;;;14.80;99.90;;;;;;10437092;28;20049;-60
2022/10/18 04:36:46;;;;;;;2.80;2.42;;;14.80;99.90;;;;;;10436857;28;20037;-61
2022/10/18 04:41:47;;;;;;;3.15;2.30;;;14.80;99.90;;;;;;10436927;28;20441;-60
2022/10/18 04:46:48;;;;;;;3.67;2.75;;;14.80;99.90;;;;;;10436506;28;20119;-60
2022/10/18 04:51:48;;;;;;;2.92;2.50;;;14.70;99.90;;;;;;10438898;28;20455;-60
2022/10/18 04:56:49;;;;;;;3.20;2.75;;;14.70;99.90;;;;;;10435007;28;20378;-61
2022/10/18 05:01:50;;;;;;;3.28;2.50;;;14.80;99.90;;;;;;10436191;28;20108;-62
2022/10/18 05:06:50;;;;;;;3.88;2.70;;;14.80;99.90;;;;;;10436108;28;20369;-60
2022/10/18 05:11:51;;;;;;;3.67;2.50;;;14.70;99.90;;;;;;10434716;28;20400;-60
2022/10/18 05:16:52;;;;;;;3.20;2.60;;;14.70;99.90;;;;;;10438382;28;20063;-60
2022/10/18 05:21:53;;;;;;;3.28;2.80;;;14.70;99.90;;;;;;10438508;28;20078;-60
2022/10/18 05:26:54;;;;;;;3.15;2.60;;;14.70;99.90;;;;;;10436516;28;20082;-60
2022/10/18 05:31:54;;;;;;;4.32;2.80;;;14.70;99.90;;;;;;10430802;28;20146;-60
2022/10/18 05:36:55;;;;;;;3.25;2.58;;;14.70;99.90;;;;;;10435253;28;20480;-61
2022/10/18 05:41:56;;;;;;;3.78;2.65;;;14.70;99.90;;;;;;10430809;28;20771;-60
2022/10/18 05:46:57;;;;;;;3.45;2.70;;;14.70;99.90;;;;;;10430658;28;20209;-60
2022/10/18 05:51:58;;;;;;;3.15;2.70;;;14.70;99.90;;;;;;10433393;28;20037;-61
2022/10/18 05:56:59;;;;;;;4.15;2.53;;;14.70;99.90;;;;;;10431831;28;20565;-60
2022/10/18 06:01:59;;;;;;;3.60;2.60;;;14.70;99.90;;;;;;10429171;28;20021;-60
2022/10/18 06:07:03;;;;;;;3.28;2.38;;;14.70;99.90;;;;;;10437758;28;20033;-60
2022/10/18 06:12:04;;;;;;;4.15;2.95;;;14.70;99.90;;;;;;10439494;28;20021;-60
2022/10/18 06:17:05;;;;;;;4.43;2.97;;;14.70;99.90;;;;;;10440850;28;20025;-60
2022/10/18 06:22:06;;;;;;;4.32;3.08;;;14.60;99.90;;;;;;10441323;28;20041;-60
2022/10/18 06:27:09;;;;;;;7.20;3.05;;;14.60;99.90;;;;;;10439223;28;20040;-59
2022/10/18 06:32:10;;;;;;;5.80;2.92;;;14.60;99.90;;;;;;10439928;28;20128;-60
2022/10/18 06:37:10;;;;;;;3.65;3.08;;;14.60;99.90;;;;;;10442121;28;20043;-60
2022/10/18 06:42:11;;;;;;;4.40;3.03;;;14.60;99.90;;;;;;10441082;28;20041;-59
2022/10/18 06:47:12;;;;;;;4.47;2.90;;;14.60;99.90;;;;;;10435470;28;20454;-59
2022/10/18 06:52:15;;;;;;;4.95;2.83;;;14.60;99.90;;;;;;10392100;28;20043;-59
2022/10/18 06:57:16;;;;;;;3.40;2.65;;;14.60;99.90;;;;;;10366586;28;20186;-60
2022/10/18 07:02:17;;;;;;;3.80;2.60;;;14.60;99.90;;;;;;10364162;28;20040;-60
2022/10/18 07:07:19;;;;;;;3.92;2.83;;;14.60;99.90;;;;;;10366685;28;20055;-60
2022/10/18 07:12:20;;;;;;;4.65;3.13;;;14.60;99.90;;;;;;10358075;28;20036;-59
2022/10/18 07:17:21;;;;;;;4.88;3.20;;;14.50;99.90;;;;;;10350167;28;20477;-60
2022/10/18 07:22:22;;;;;;;3.95;2.70;;;14.50;99.90;;;;;;10351970;28;20036;-60
2022/10/18 07:27:22;;;;;;;3.63;2.83;;;14.60;99.90;;;;;;10356293;28;20215;-60
2022/10/18 07:32:23;;;;;;;2.83;2.45;;;14.50;99.90;;;;;;10353784;28;20045;-60
2022/10/18 07:37:24;;;;;;;3.38;2.80;;;14.50;99.90;;;;;;10339203;28;20033;-60
2022/10/18 07:42:25;;;;;;;3.90;2.40;;;14.60;99.90;;;;;;10356644;28;20053;-59
2022/10/18 07:47:25;;;;;;;4.03;2.55;;;14.60;99.90;;;;;;10355271;28;20507;-59
2022/10/18 07:52:26;;;;;;;4.40;2.17;;;14.60;99.90;;;;;;10334318;28;20037;-61
2022/10/18 07:57:27;;;;;;;3.72;2.28;;;14.60;99.90;;;;;;10362998;28;20189;-60
2022/10/18 08:02:28;;;;;;;2.53;1.95;;;14.60;99.90;;;;;;10357922;28;20166;-60
2022/10/18 08:07:29;;;;;;;2.35;1.90;;;14.60;99.90;;;;;;10360250;28;20473;-59
2022/10/18 08:12:30;;;;;;;2.88;2.15;;;14.60;99.90;;;;;;10358848;28;20638;-59
2022/10/18 08:17:30;;;;;;;2.17;1.98;;;14.60;99.90;;;;;;10357985;28;20059;-59
2022/10/18 08:22:31;;;;;;;2.08;1.88;;;14.60;99.90;;;;;;10352187;28;20102;-59
2022/10/18 08:27:32;;;;;;;2.28;2.03;;;14.60;99.90;;;;;;10357945;28;20710;-59
2022/10/18 08:32:32;;;;;;;2.30;2.10;;;14.60;99.90;;;;;;10358375;28;20589;-60
2022/10/18 08:37:33;;;;;;;2.40;1.85;;;14.70;99.90;;;;;;10356071;28;20192;-60
2022/10/18 08:42:51;;;;;;;3.03;1.88;;;14.70;99.90;;;;;;10355835;28;20045;-59
2022/10/18 08:47:55;;;;;;;4.70;2.10;;;14.80;99.90;;;;;;10357277;28;20478;-60
2022/10/18 08:52:59;;;;;;;2.20;1.73;;;14.80;99.90;;;;;;10353855;28;20473;-61
2022/10/18 08:57:59;;;;;;;2.45;1.70;;;14.90;99.90;;;;;;10356808;28;20028;-60
2022/10/18 09:03:20;;;;;;;2.30;1.73;;;14.90;99.90;;;;;;10352908;28;20030;-59
2022/10/18 09:08:34;;;;;;;2.58;1.90;;;15.00;99.90;;;;;;10355129;28;20955;-59
2022/10/18 09:14:13;;;;;;;2.30;1.85;;;15.10;99.90;;;;;;10335172;28;20045;-60
2022/10/18 09:19:35;;;;;;;3.08;1.60;;;15.20;99.90;;;;;;10336997;28;20044;-59
2022/10/18 09:25:07;;;;;;;3.03;1.88;;;15.20;99.90;;;;;;10354024;28;20048;-60
2022/10/18 09:30:23;;;;;;;2.25;1.65;;;15.30;99.90;;;;;;10357115;28;20075;-59
2022/10/18 09:35:28;;;;;;;3.25;2.00;;;15.40;99.90;;;;;;10362554;28;20381;-59
2022/10/18 09:40:34;;;;;;;2.03;1.70;;;15.50;99.90;;;;;;10360912;28;20640;-60
2022/10/18 09:45:38;;;;;;;3.58;1.90;;;15.50;99.90;;;;;;10355413;28;20424;-60
2022/10/18 09:50:49;;;;;;;3.28;1.80;;;15.60;99.90;;;;;;10358109;28;20023;-60
2022/10/18 09:56:03;;;;;;;2.72;1.60;;;15.60;99.90;;;;;;10357976;28;20041;-60
2022/10/18 10:01:05;;;;;;;2.33;1.52;;;15.70;99.90;;;;;;10353687;28;20025;-59
2022/10/18 10:06:11;;;;;;;3.35;1.40;;;15.70;99.90;;;;;;10357006;28;20528;-60
2022/10/18 10:11:31;;;;;;;2.38;1.45;;;15.80;99.90;;;;;;10344591;28;20547;-59
2022/10/18 10:16:32;;;;;;;2.58;1.30;;;15.80;99.90;;;;;;10368102;28;20056;-60
2022/10/18 10:21:32;;;;;;;2.22;1.20;;;15.80;99.90;;;;;;10356871;28;20030;-59
2022/10/18 10:26:36;;;;;;;3.65;1.38;;;15.80;99.90;;;;;;10364622;28;20278;-59
2022/10/18 10:31:37;;;;;;;3.33;1.10;;;15.90;99.90;;;;;;10361731;28;20563;-59
2022/10/18 10:36:49;;;;;;;1.55;1.08;;;15.90;99.90;;;;;;10359339;28;20274;-59
2022/10/18 10:41:52;;;;;;;4.07;1.17;;;15.90;99.90;;;;;;10340499;28;20186;-59
2022/10/18 10:46:53;;;;;;;2.20;1.20;;;15.90;99.90;;;;;;10359420;28;20021;-59
2022/10/18 10:52:00;;;;;;;3.97;1.25;;;15.90;99.90;;;;;;10357210;28;20025;-59
2022/10/18 10:57:19;;;;;;;2.45;1.20;;;15.90;99.90;;;;;;10364377;28;20487;-59
2022/10/18 11:02:25;;;;;;;2.78;1.13;;;16.00;99.90;;;;;;10356369;28;20764;-59
2022/10/18 11:07:38;;;;;;;3.17;1.30;;;16.00;99.90;;;;;;10362582;28;20037;-60
2022/10/18 11:13:02;;;;;;;2.60;1.05;;;16.00;99.90;;;;;;10361972;28;20037;-59
2022/10/18 11:18:25;;;;;;;4.80;1.10;;;16.00;99.90;;;;;;10359700;28;20544;-59
2022/10/18 11:23:36;;;;;;;1.92;0.95;;;16.20;99.90;;;;;;10341231;28;21492;-61
2022/10/18 11:29:14;;;;;;;1.70;0.90;;;16.10;99.90;;;;;;10363128;28;20040;-59
2022/10/18 11:34:42;;;;;;;1.17;0.83;;;16.10;99.90;;;;;;10347007;28;20488;-60
2022/10/18 11:40:21;;;;;;;3.35;1.10;;;16.10;99.90;;;;;;10360714;28;20048;-60
2022/10/18 11:45:34;;;;;;;1.65;0.98;;;16.10;99.90;;;;;;10324417;28;20275;-60
2022/10/18 11:50:53;;;;;;;2.08;1.00;;;16.10;99.90;;;;;;10358589;28;20124;-60
2022/10/18 11:56:17;;;;;;;1.88;0.90;;;16.10;99.90;;;;;;10363425;28;20076;-59
2022/10/18 12:01:42;;;;;;;2.53;0.90;;;16.10;99.90;;;;;;10366343;28;20194;-60
2022/10/18 12:06:46;;;;;;;4.00;0.85;;;16.20;99.90;;;;;;10357960;28;20438;-60
2022/10/18 12:12:01;;;;;;;2.85;0.93;;;16.20;99.90;;;;;;10356803;28;20226;-60
2022/10/18 12:17:07;;;;;;;1.60;0.82;;;16.20;99.90;;;;;;10356625;28;20568;-60
2022/10/18 12:22:20;;;;;;;5.68;1.15;;;16.20;99.90;;;;;;10356163;28;20029;-60
2022/10/18 12:27:35;;;;;;;1.50;0.88;;;16.20;99.90;;;;;;10335587;28;20429;-62
2022/10/18 12:32:36;;;;;;;2.30;0.80;;;16.60;99.90;;;;;;10336641;28;20142;-60
2022/10/18 12:37:40;;;;;;;1.65;0.70;;;16.30;99.90;;;;;;10354827;28;20028;-60
2022/10/18 12:42:44;;;;;;;2.20;0.70;;;16.30;99.90;;;;;;10350297;28;20508;-60
2022/10/18 12:47:44;;;;;;;3.83;0.90;;;16.30;99.90;;;;;;10354141;28;20032;-61
2022/10/18 12:53:03;;;;;;;1.70;0.70;;;16.30;99.90;;;;;;10352379;28;20048;-60
2022/10/18 12:58:28;;;;;;;1.95;0.82;;;16.30;99.90;;;;;;10358470;28;20025;-60
2022/10/18 13:03:49;;;;;;;3.75;0.70;;;16.30;99.90;;;;;;10346856;28;20049;-60
2022/10/18 13:09:17;;;;;;;4.18;0.80;;;16.40;99.90;;;;;;10361074;28;20721;-59
2022/10/18 13:14:34;;;;;;;3.95;1.05;;;16.40;99.90;;;;;;10360241;28;20328;-60
2022/10/18 13:19:56;;;;;;;3.75;0.90;;;16.30;99.90;;;;;;10360252;28;20433;-60
2022/10/18 13:25:40;;;;;;;2.30;0.60;;;16.30;99.90;;;;;;10359670;28;20033;-64
2022/10/18 13:31:00;;;;;;;2.53;0.90;;;16.30;99.90;;;;;;10324475;28;20122;-60
2022/10/18 13:36:19;;;;;;;1.80;0.82;;;16.40;99.90;;;;;;10361789;28;20514;-60
2022/10/18 13:41:45;;;;;;;2.30;0.70;;;16.40;99.90;;;;;;10361405;28;20144;-60
2022/10/18 13:46:46;;;;;;;1.48;0.70;;;16.40;99.90;;;;;;10362549;28;20326;-62
2022/10/18 13:52:09;;;;;;;2.65;0.63;;;16.30;99.90;;;;;;10361223;28;20029;-61
2022/10/18 13:57:10;;;;;;;2.50;0.70;;;16.30;99.90;;;;;;10367110;28;20045;-61
2022/10/18 14:02:33;;;;;;;4.28;0.90;;;16.40;99.90;;;;;;10376295;28;20508;-60
2022/10/18 14:07:35;;;;;;;2.47;1.00;;;16.50;99.90;;;;;;10379840;28;20043;-60
2022/10/18 14:12:50;;;;;;;2.38;0.65;;;16.60;99.90;;;;;;10368898;28;20181;-60
2022/10/18 14:17:57;;;;;;;2.08;0.70;;;16.70;99.90;;;;;;10361444;28;20631;-60
2022/10/18 14:23:18;;;;;;;3.67;0.93;;;16.70;99.90;;;;;;10341684;28;20055;-60
2022/10/18 14:28:21;;;;;;;3.80;0.60;;;16.80;99.90;;;;;;10359838;28;20133;-60
2022/10/18 14:33:36;;;;;;;2.15;0.80;;;16.90;99.90;;;;;;10357453;28;20567;-59
2022/10/18 14:38:46;;;;;;;3.05;1.23;;;16.90;99.90;;;;;;10373468;28;20422;-60
2022/10/18 14:43:48;;;;;;;1.42;0.50;;;17.00;99.90;;;;;;10359002;28;20316;-60
2022/10/18 14:49:00;;;;;;;3.47;0.75;;;17.10;99.90;;;;;;10361473;28;20738;-60
2022/10/18 14:54:01;;;;;;;2.22;0.80;;;17.10;99.90;;;;;;10342911;28;20505;-60
2022/10/18 14:59:08;;;;;;;1.85;0.70;;;17.10;99.90;;;;;;10357682;28;20148;-63
2022/10/18 15:04:10;;;;;;;3.80;0.82;;;17.10;99.90;;;;;;10345720;28;20542;-64
2022/10/18 15:09:13;;;;;;;3.05;0.70;;;17.10;99.90;;;;;;10372117;28;20044;-60
2022/10/18 15:14:17;;;;;;;4.30;1.02;;;17.20;99.90;;;;;;10358427;28;20033;-60
2022/10/18 15:19:20;;;;;;;1.20;0.70;;;17.00;99.90;;;;;;10356033;28;20029;-59
2022/10/18 15:24:38;;;;;;;2.15;0.90;;;16.90;99.90;;;;;;10358032;28;20658;-60
2022/10/18 15:29:42;;;;;;;3.33;1.02;;;16.80;99.90;;;;;;10358704;28;20129;-60
2022/10/18 15:34:42;;;;;;;3.95;0.90;;;16.80;99.90;;;;;;10370250;28;20296;-60
2022/10/18 15:39:43;;;;;;;2.13;0.60;;;16.70;99.90;;;;;;10356255;28;20128;-60
2022/10/18 15:44:52;;;;;;;3.55;0.80;;;16.60;99.90;;;;;;10358052;28;20033;-60
2022/10/18 15:49:55;;;;;;;;;;;16.60;99.90;;;;;;10354983;28;20032;-60
2022/10/18 15:54:56;;;;;;;3.65;0.90;;;16.60;99.90;;;;;;10339256;28;19931;-60
2022/10/18 16:00:02;;;;;;;2.17;0.70;;;16.50;99.90;;;;;;10358503;28;20525;-60
2022/10/18 16:05:03;;;;;;;1.83;0.90;;;16.50;99.90;;;;;;10372591;28;20036;-60
2022/10/18 16:10:12;;;;;;;5.03;0.80;;;16.40;99.90;;;;;;10360725;28;20144;-60
2022/10/18 16:15:13;;;;;;;3.10;1.13;;;16.40;99.90;;;;;;10357043;28;20208;-62
2022/10/18 16:20:21;;;;;;;3.22;0.80;;;16.40;99.90;;;;;;10357405;28;20091;-60
2022/10/18 16:25:21;;;;;;;5.53;1.10;;;16.30;99.90;;;;;;10354542;28;20071;-61
2022/10/18 16:30:27;;;;;;;2.40;0.95;;;16.30;99.90;;;;;;10353258;28;20029;-60
2022/10/18 16:35:28;;;;;;;2.40;1.00;;;16.30;99.90;;;;;;10367729;28;20059;-60
2022/10/18 16:40:29;;;;;;;3.15;1.13;;;16.30;99.90;;;;;;10354673;28;20365;-60
2022/10/18 16:45:30;;;;;;;4.90;1.30;;;16.20;99.90;;;;;;10356686;28;20153;-60
2022/10/18 16:50:31;;;;;;;5.45;1.30;;;16.20;99.90;;;;;;10357783;28;20040;-60
2022/10/18 16:55:32;;;;;;;4.90;1.17;;;16.10;99.90;;;;;;10353118;28;20488;-60
2022/10/18 17:00:33;;;;;;;3.22;1.30;;;16.10;99.90;;;;;;10364371;28;20354;-60
2022/10/18 17:05:34;;;;;;;5.38;1.45;;;16.10;99.90;;;;;;10436169;28;20025;-60
2022/10/18 17:10:35;;;;;;;3.33;1.33;;;16.00;99.90;;;;;;10434143;28;20095;-60
2022/10/18 17:15:35;;;;;;;8.63;1.80;;;16.00;99.90;;;;;;10434187;28;20048;-60
2022/10/18 17:20:36;;;;;;;4.15;1.80;;;16.00;99.90;;;;;;10415992;28;20037;-60
2022/10/18 17:25:39;;;;;;;3.88;1.70;;;16.00;99.90;;;;;;10429988;28;20033;-61
2022/10/18 17:30:41;;;;;;;3.28;1.65;;;15.90;99.90;;;;;;10431934;28;20032;-60
2022/10/18 17:35:42;;;;;;;7.45;1.77;;;15.90;99.90;;;;;;10433461;28;20950;-61
2022/10/18 17:40:43;;;;;;;7.65;1.50;;;15.90;99.90;;;;;;10430120;28;20131;-60
2022/10/18 17:45:55;;;;;;;5.82;1.73;;;15.80;99.90;;;;;;10423721;28;20029;-70
2022/10/18 17:50:56;;;;;;;3.10;1.15;;;15.80;99.90;;;;;;10431350;28;20028;-61
2022/10/18 17:56:01;;;;;;;1.95;1.25;;;15.80;99.90;;;;;;10437426;28;20079;-60
2022/10/18 18:01:08;;;;;;;3.70;1.55;;;15.70;99.90;;;;;;10436428;28;20021;-60
2022/10/18 18:06:17;;;;;;;4.25;1.42;;;15.80;99.90;;;;;;10412958;28;20063;-62
2022/10/18 18:11:18;;;;;;;6.00;1.80;;;15.70;99.90;;;;;;10439636;28;20029;-61
2022/10/18 18:16:22;;;;;;;3.25;1.70;;;15.70;99.90;;;;;;10440076;28;20440;-61
2022/10/18 18:21:24;;;;;;;4.32;1.33;;;15.70;99.90;;;;;;10438808;28;20107;-61
2022/10/18 18:26:25;;;;;;;4.32;1.55;;;15.70;99.90;;;;;;10442159;28;20033;-60
2022/10/18 18:31:26;;;;;;;4.90;1.63;;;15.70;99.90;;;;;;10439908;28;20021;-60
2022/10/18 18:36:31;;;;;;;4.40;1.70;;;15.60;99.90;;;;;;10435751;28;20103;-61
2022/10/18 18:41:32;;;;;;;4.93;1.50;;;15.60;99.90;;;;;;10440097;28;20071;-60
2022/10/18 18:46:37;;;;;;;6.60;1.95;;;15.60;99.90;;;;;;10437873;28;20071;-62
2022/10/18 18:51:39;;;;;;;4.13;1.90;;;15.60;99.90;;;;;;10437456;28;20076;-61
2022/10/18 18:56:40;;;;;;;4.20;2.38;;;15.60;99.90;;;;;;10438610;28;20417;-61
2022/10/18 19:01:42;;;;;;;4.45;1.98;;;15.50;99.90;;;;;;10434968;28;20484;-60
2022/10/18 19:06:44;;;;;;;3.38;1.60;;;15.50;99.90;;;;;;10427544;28;20382;-60
2022/10/18 19:11:47;;;;;;;5.97;1.80;;;15.50;99.90;;;;;;10433405;28;20025;-60
2022/10/18 19:16:52;;;;;;;8.07;2.10;;;15.50;99.90;;;;;;10429789;28;20060;-59
2022/10/18 19:21:57;;;;;;;4.45;1.70;;;15.40;99.90;;;;;;10439896;28;20031;-60
2022/10/18 19:27:01;;;;;;;3.90;2.28;;;15.40;99.90;;;;;;10436524;28;20040;-60
2022/10/18 19:32:04;;;;;;;5.28;1.73;;;15.40;99.90;;;;;;10440560;28;20025;-60
2022/10/18 19:37:05;;;;;;;4.25;1.65;;;15.40;99.90;;;;;;10439231;28;20098;-60
2022/10/18 19:42:11;;;;;;;6.03;2.10;;;15.30;99.90;;;;;;10438802;28;20086;-60
2022/10/18 19:47:14;;;;;;;4.15;1.70;;;15.30;99.90;;;;;;10439495;28;20079;-60
2022/10/18 19:52:15;;;;;;;5.38;1.75;;;15.20;99.90;;;;;;10435390;28;20440;-60
2022/10/18 19:57:15;;;;;;;4.22;2.13;;;15.20;99.90;;;;;;10441099;28;20045;-60
2022/10/18 20:02:16;;;;;;;5.88;2.58;;;15.20;99.90;;;;;;10436514;28;20034;-60
2022/10/18 20:07:17;;;;;;;5.45;2.05;;;15.20;99.90;;;;;;10433897;28;20033;-60
2022/10/18 20:12:17;;;;;;;5.80;2.25;;;15.10;99.90;;;;;;10433936;28;20069;-59
2022/10/18 20:17:19;;;;;;;4.38;1.95;;;15.10;99.90;;;;;;10435538;28;20060;-59
2022/10/18 20:22:20;;;;;;;6.45;2.10;;;15.10;99.90;;;;;;10437443;28;20096;-62
2022/10/18 20:27:21;;;;;;;5.25;2.10;;;15.10;99.90;;;;;;10439086;28;20047;-59
2022/10/18 20:32:21;;;;;;;4.65;2.50;;;15.00;99.90;;;;;;10439162;28;20021;-59
2022/10/18 20:37:22;;;;;;;5.75;2.55;;;15.00;99.90;;;;;;10436967;28;20047;-59
2022/10/18 20:42:23;;;;;;;9.80;2.40;;;15.00;99.90;;;;;;10436468;28;20576;-60
2022/10/18 20:47:23;;;;;;;4.97;2.70;;;15.00;99.90;;;;;;10436724;28;20037;-60
2022/10/18 20:52:24;;;;;;;4.30;2.30;;;15.00;99.90;;;;;;10440035;28;20485;-60
2022/10/18 20:57:27;;;;;;;5.25;2.60;;;14.90;99.90;;;;;;10434194;28;20037;-59
2022/10/18 21:02:28;;;;;;;4.65;3.03;;;14.90;99.90;;;;;;10434472;28;20056;-60
2022/10/18 21:07:29;;;;;;;5.70;2.88;;;14.90;99.90;;;;;;10436309;28;20032;-59
2022/10/18 21:12:29;;;;;;;7.22;3.00;;;14.90;99.90;;;;;;10438337;28;20036;-60
2022/10/18 21:17:30;;;;;;;5.35;2.92;;;14.90;99.90;;;;;;10434462;28;20029;-60
2022/10/18 21:22:31;;;;;;;8.85;3.15;;;14.80;99.90;;;;;;10440429;28;20167;-60
2022/10/18 21:27:31;;;;;;;5.28;2.95;;;14.80;99.90;;;;;;10439992;28;20040;-60
2022/10/18 21:32:32;;;;;;;5.05;3.00;;;14.80;99.90;;;;;;10427215;28;20697;-60
2022/10/18 21:37:33;;;;;;;4.10;2.28;;;14.80;99.90;;;;;;10441739;28;20021;-60
2022/10/18 21:42:33;;;;;;;5.25;2.83;;;14.80;99.90;;;;;;10441312;28;20257;-60
2022/10/18 21:47:34;;;;;;;7.38;2.60;;;14.80;99.90;;;;;;10440477;28;20028;-59
2022/10/18 21:52:35;;;;;;;4.53;2.20;;;14.70;99.90;;;;;;10441888;28;20025;-60
2022/10/18 21:57:35;;;;;;;4.57;2.53;;;14.70;99.90;;;;;;10445764;28;20059;-60
2022/10/18 22:02:36;;;;;;;4.47;2.00;;;14.70;99.90;;;;;;10444567;28;20090;-60
2022/10/18 22:07:37;;;;;;;3.17;2.28;;;14.70;99.90;;;;;;10443620;28;20029;-60
2022/10/18 22:12:38;;;;;;;5.47;2.50;;;14.70;99.90;;;;;;10439478;28;20489;-60
2022/10/18 22:17:38;;;;;;;5.50;2.50;;;14.70;99.90;;;;;;10442449;28;20411;-60
2022/10/18 22:22:39;;;;;;;4.45;2.00;;;14.70;99.90;;;;;;10444055;28;20033;-60
2022/10/18 22:27:40;;;;;;;3.10;1.95;;;14.60;99.90;;;;;;10423609;28;20390;-60
2022/10/18 22:32:40;;;;;;;3.45;2.15;;;14.60;99.90;;;;;;10442616;28;20662;-60
2022/10/18 22:37:41;;;;;;;5.13;2.45;;;14.60;99.90;;;;;;10440777;28;20112;-60
2022/10/18 22:42:42;;;;;;;3.42;2.22;;;14.60;99.90;;;;;;10440596;28;20041;-60
2022/10/18 22:47:42;;;;;;;4.80;2.00;;;14.60;99.90;;;;;;10442203;28;20033;-60
2022/10/18 22:52:43;;;;;;;3.85;1.90;;;14.60;99.90;;;;;;10442021;28;20025;-60
2022/10/18 22:57:44;;;;;;;5.45;1.77;;;14.60;99.90;;;;;;10441344;28;20032;-59
2022/10/18 23:02:48;;;;;;;4.55;2.13;;;14.60;99.90;;;;;;10441223;28;20050;-60
2022/10/18 23:07:48;;;;;;;5.20;2.05;;;14.60;99.90;;;;;;10439658;28;20033;-60
2022/10/18 23:12:49;;;;;;;2.55;1.50;;;14.60;99.90;;;;;;10423114;28;20275;-60
2022/10/18 23:17:53;;;;;;;5.60;2.25;;;14.60;99.90;;;;;;10440755;28;20029;-60
2022/10/18 23:22:54;;;;;;;3.63;2.00;;;14.60;99.90;;;;;;10441966;28;20472;-60
2022/10/18 23:27:56;;;;;;;3.30;1.83;;;14.50;99.90;;;;;;10441462;28;20035;-60
2022/10/18 23:32:56;;;;;;;3.25;1.98;;;14.60;99.90;;;;;;10438929;28;20485;-60
2022/10/18 23:37:57;;;;;;;3.70;1.90;;;14.50;99.90;;;;;;10439744;28;20036;-60
2022/10/18 23:42:58;;;;;;;4.13;1.90;;;14.60;99.90;;;;;;10438765;28;20037;-59
2022/10/18 23:47:58;;;;;;;3.08;1.95;;;14.50;99.90;;;;;;10437327;28;20017;-59
2022/10/18 23:52:59;;;;;;;4.22;1.88;;;14.50;99.90;;;;;;10433214;28;20038;-60
2022/10/18 23:58:00;;;;;;;2.15;1.48;;;14.50;99.90;;;;;;10437453;28;20028;-60
